Aeroporto :
LOGIN :

Iscrizione | Disclaimer

   EN    FR    IT 

 










Sommario :    VFR   VFR Marginale   IFR   IFR Intensivo   IFR Molto Intensivo
Visibilità : 
Base nubi : 
>= 8 km
>= 3000ft
5 / 8 km
1000 / 3000 ft
1500m / 5 km
500 / 1000 ft
800 / 1500m
200 / 500 ft
< 800m
< 200 ft
Simboli :   Temporali  Nebbia  Neve Forte  Precipitazioni Forti  Vento > 20 kt
SIGMETs :   Varie  Temporali  Ghiacco  Turbolenza  Onda orograficha  Ceneri Vulcaniche






- Altitudine del aeroporto : 236 ft
- Codice IATA : MMX


ESMS - Malmö Sturup

ULTIMO METAR :
  • 131650Z 16005KT CAVOK 03/02 Q1001

METARs OBSOLETI :
  • 131620Z 16005KT CAVOK 04/02 Q1001
  • 131550Z 16005KT 9999 FEW022 04/02 Q1001
  • 131520Z 15005KT CAVOK 05/03 Q1001
  • 131450Z 16005KT 9999 SCT021 BKN027 05/03 Q1000
  • 131420Z 16006KT 9999 FEW014 SCT020 05/04 Q1000

TAF TAF ESMS
Valido dal 13 a 12 ore il 14 a 12 ore UTC


131116Z 1312/1412 16008KT 9999 SCT015
TEMPO 1312/1315 BKN012
TEMPO 1406/1412 BKN009 SCT020CB



MetMap, La meteo Aeronautica in un colpo d'occhio ! - Copyright ORBIFLY Dicembre 2007 - Disclaimer

ORBIFLY MET'MAP TEAM :

Programmazione e sviluppo : Alexandra Zaïnal
Concezione e sviluppo : Baudouin d'Aumeries
Co-Programmazione e sviluppo : Marc-Olivier Méhu
Supporto tecnico e logistico : Manuel Goepfert
Aiuto per la traduzione : Arnaldo La Scala

Contatto : metmap@orbifly.com




FONTI E CREDITI :

   NOAA